Terminal Aerodrome Forecast
Issued by NWS Shreveport, LA

Home | Current Version | Previous Version | Text Only | Print | Product List | Glossary On
Versions: 1 2 3 4 5 6 7 8 9 10 11 12 13 14 15 16 17 18 19 20 21 22 23 24 25 26 27 28 29 30 31 32 33 34
239
FTUS44 KSHV 282145 AAC
TAFMLU
TAF AMD
KMLU 282145Z 2822/2918 VRB04KT P6SM VCSH SCT060 OVC120
     FM290200 VRB04KT P6SM SCT060 BKN150 BKN250
     FM290600 20002KT P6SM SCT060 BKN250
      TEMPO 2909/2913 3SM BR
     FM291400 25009KT P6SM OVC050=

USA.gov is the U.S. government's official web portal to all federal, state and local government web resources and services.